Time;durP1;ratioP1;P1;durP2;ratioP2;P2;SDS_P1;SDS_P2;PMS_P1;PMS_P2;Temp;Humidity;BMP_temperature;BMP_pressure;BME280_temperature;BME280_humidity;BME280_pressure;Samples;Min_cycle;Max_cycle;Signal;HPM_P1;HPM_P2
2022/11/29 00:00:05;;;;;;;16.67;11.95;;;;;;;;;;10257626;28;20072;-63
2022/11/29 00:05:10;;;;;;;19.35;13.20;;;;;;;;;;10257383;28;20475;-65
2022/11/29 00:10:10;;;;;;;20.33;14.60;;;;;;;;;;10253470;28;20128;-63
2022/11/29 00:15:08;;;;;;;19.55;15.43;;;;;;;;;;10255414;28;20651;-63
2022/11/29 00:20:08;;;;;;;23.67;14.98;;;;;;;;;;10257318;28;20072;-63
2022/11/29 00:25:08;;;;;;;19.60;14.30;;;;;;;;;;10244554;28;20100;-63
2022/11/29 00:30:07;;;;;;;20.25;15.02;;;;;;;;;;10272437;28;20414;-64
2022/11/29 00:35:05;;;;;;;21.45;13.70;;;;;;;;;;10264593;28;20423;-64
2022/11/29 00:40:08;;;;;;;18.90;14.20;;;;;;;;;;10254649;28;20072;-64
2022/11/29 00:45:08;;;;;;;21.83;13.68;;;;;;;;;;10240785;28;20136;-64
2022/11/29 00:50:07;;;;;;;19.50;13.43;;;;;;;;;;10249515;28;20414;-64
2022/11/29 00:55:05;;;;;;;21.15;14.82;;;;;;;;;;10260971;28;20410;-64
2022/11/29 01:00:06;;;;;;;16.80;13.15;;;;;;;;;;10255009;28;20084;-63
2022/11/29 01:05:05;;;;;;;15.55;11.88;;;;;;;;;;10253990;28;20053;-65
2022/11/29 01:10:03;;;;;;;13.90;11.32;;;;;;;;;;10255056;28;20075;-63
2022/11/29 01:15:01;;;;;;;19.08;13.75;;;;;;;;;;10253015;28;20077;-63
2022/11/29 01:20:01;;;;;;;14.35;11.82;;;;;;;;;;10254161;28;20069;-63
2022/11/29 01:24:59;;;;;;;15.38;11.75;;;;;;;;;;10254783;28;20041;-63
2022/11/29 01:29:58;;;;;;;16.73;12.13;;;;;;;;;;10252483;28;20053;-64
2022/11/29 01:34:56;;;;;;;16.92;13.27;;;;;;;;;;10235429;28;20086;-63
2022/11/29 01:39:56;;;;;;;17.63;14.40;;;;;;;;;;10235063;28;20084;-63
2022/11/29 01:45:02;;;;;;;16.35;12.63;;;;;;;;;;10234321;28;20108;-63
2022/11/29 01:50:00;;;;;;;16.15;13.55;;;;;;;;;;10234269;28;20047;-63
2022/11/29 01:55:01;;;;;;;17.48;13.10;;;;;;;;;;10234642;28;20096;-63
2022/11/29 02:00:01;;;;;;;14.70;12.57;;;;;;;;;;10234044;28;20080;-62
2022/11/29 02:05:10;;;;;;;16.88;13.38;;;;;;;;;;10235162;28;20080;-63
2022/11/29 02:10:10;;;;;;;16.05;13.10;;;;;;;;;;10253467;28;20081;-63
2022/11/29 02:15:17;;;;;;;16.83;13.02;;;;;;;;;;10274294;28;20110;-63
2022/11/29 02:20:30;;;;;;;17.13;13.95;;;;;;;;;;10273983;28;20076;-63
2022/11/29 02:25:39;;;;;;;19.50;14.60;;;;;;;;;;10272288;28;20061;-64
2022/11/29 02:30:55;;;;;;;21.02;14.35;;;;;;;;;;10281066;28;20089;-64
2022/11/29 02:36:03;;;;;;;23.38;16.83;;;;;;;;;;10281711;28;20080;-63
2022/11/29 02:41:14;;;;;;;26.65;17.58;;;;;;;;;;10281137;28;20536;-63
2022/11/29 02:46:21;;;;;;;21.17;15.82;;;;;;;;;;10281422;28;20080;-63
2022/11/29 02:51:24;;;;;;;23.65;16.92;;;;;;;;;;10281330;28;20041;-63
2022/11/29 02:56:24;;;;;;;22.88;15.25;;;;;;;;;;10280407;28;20503;-63
2022/11/29 03:01:24;;;;;;;22.60;17.20;;;;;;;;;;10280379;28;20089;-64
2022/11/29 03:06:30;;;;;;;23.30;15.38;;;;;;;;;;10279982;28;20072;-64
2022/11/29 03:11:32;;;;;;;21.35;16.38;;;;;;;;;;10279139;28;20047;-63
2022/11/29 03:16:38;;;;;;;22.02;16.52;;;;;;;;;;10280535;28;20079;-63
2022/11/29 03:21:45;;;;;;;22.67;15.65;;;;;;;;;;10280145;28;20095;-63
2022/11/29 03:26:45;;;;;;;20.50;15.63;;;;;;;;;;10279269;28;20072;-64
2022/11/29 03:31:47;;;;;;;19.70;15.73;;;;;;;;;;10280047;28;20041;-64
2022/11/29 03:36:50;;;;;;;24.92;16.10;;;;;;;;;;10278992;28;20041;-63
2022/11/29 03:41:49;;;;;;;20.55;15.82;;;;;;;;;;10278250;28;20076;-63
2022/11/29 03:46:50;;;;;;;24.00;17.35;;;;;;;;;;10278487;28;20080;-63
2022/11/29 03:51:54;;;;;;;24.00;18.55;;;;;;;;;;10278867;28;20053;-63
2022/11/29 03:56:52;;;;;;;25.92;21.20;;;;;;;;;;10278593;28;20053;-64
2022/11/29 04:02:08;;;;;;;20.80;16.85;;;;;;;;;;10277820;28;20092;-63
2022/11/29 04:07:06;;;;;;;;;;;;;;;;;;10278551;28;20044;-64
2022/11/29 04:12:19;;;;;;;22.25;16.35;;;;;;;;;;10277967;28;19928;-63
2022/11/29 04:17:33;;;;;;;24.90;18.75;;;;;;;;;;10265274;28;20103;-63
2022/11/29 04:22:39;;;;;;;23.17;19.48;;;;;;;;;;10268266;28;20083;-63
2022/11/29 04:27:47;;;;;;;22.65;18.48;;;;;;;;;;10247656;28;20088;-63
2022/11/29 04:33:07;;;;;;;23.83;19.02;;;;;;;;;;10238277;28;20164;-64
2022/11/29 04:38:13;;;;;;;24.95;18.25;;;;;;;;;;10237215;28;20049;-64
2022/11/29 04:43:20;;;;;;;21.52;16.42;;;;;;;;;;10236630;28;20087;-64
2022/11/29 04:48:26;;;;;;;25.35;22.48;;;;;;;;;;10236500;28;20044;-64
2022/11/29 04:53:29;;;;;;;27.15;19.98;;;;;;;;;;10261569;28;20053;-63
2022/11/29 04:58:31;;;;;;;25.15;21.08;;;;;;;;;;10276725;28;20080;-63
2022/11/29 05:03:34;;;;;;;25.30;20.35;;;;;;;;;;10275432;28;20092;-63
2022/11/29 05:08:38;;;;;;;36.03;32.38;;;;;;;;;;10259511;28;20075;-63
2022/11/29 05:13:42;;;;;;;51.03;45.53;;;;;;;;;;10239558;28;20081;-64
2022/11/29 05:18:59;;;;;;;40.60;35.40;;;;;;;;;;10235698;28;20482;-62
2022/11/29 05:24:09;;;;;;;28.63;23.73;;;;;;;;;;10234293;28;20078;-63
2022/11/29 05:29:11;;;;;;;23.90;19.75;;;;;;;;;;10271878;28;20052;-63
2022/11/29 05:34:28;;;;;;;27.90;19.10;;;;;;;;;;10257018;28;20073;-63
2022/11/29 05:39:45;;;;;;;37.67;26.20;;;;;;;;;;10269482;28;20081;-63
2022/11/29 05:44:45;;;;;;;36.15;24.00;;;;;;;;;;10270760;28;20118;-64
2022/11/29 05:49:48;;;;;;;43.33;29.05;;;;;;;;;;10273653;28;20048;-63
2022/11/29 05:54:54;;;;;;;39.72;27.52;;;;;;;;;;10274705;28;20045;-63
2022/11/29 05:59:53;;;;;;;26.33;20.48;;;;;;;;;;10251874;28;20068;-63
2022/11/29 06:04:58;;;;;;;33.15;23.50;;;;;;;;;;10258960;28;20085;-64
2022/11/29 06:10:00;;;;;;;23.92;19.52;;;;;;;;;;10262088;28;20080;-63
2022/11/29 06:15:20;;;;;;;72.88;43.20;;;;;;;;;;10265182;28;20068;-63
2022/11/29 06:20:27;;;;;;;49.80;32.72;;;;;;;;;;10276181;28;20509;-63
2022/11/29 06:25:45;;;;;;;23.88;19.05;;;;;;;;;;10281653;28;20057;-63
2022/11/29 06:30:52;;;;;;;25.20;19.75;;;;;;;;;;10281769;28;20084;-62
2022/11/29 06:35:53;;;;;;;23.13;17.48;;;;;;;;;;10281582;28;20041;-63
2022/11/29 06:40:52;;;;;;;38.78;27.15;;;;;;;;;;10281245;28;20349;-63
2022/11/29 06:46:01;;;;;;;40.13;26.40;;;;;;;;;;10281122;28;20046;-63
2022/11/29 06:51:03;;;;;;;28.23;22.35;;;;;;;;;;10281367;28;20045;-63
2022/11/29 06:56:06;;;;;;;30.35;22.67;;;;;;;;;;10274819;28;20076;-63
2022/11/29 07:01:10;;;;;;;30.92;22.98;;;;;;;;;;10276786;28;20080;-63
2022/11/29 07:06:11;;;;;;;34.75;27.05;;;;;;;;;;10277634;28;20074;-64
2022/11/29 07:11:11;;;;;;;67.55;45.13;;;;;;;;;;10278840;28;20060;-63
2022/11/29 07:16:12;;;;;;;40.92;31.83;;;;;;;;;;10272367;28;20069;-64
2022/11/29 07:21:17;;;;;;;44.15;31.48;;;;;;;;;;10263167;28;20151;-62
2022/11/29 07:26:21;;;;;;;19.48;16.77;;;;;;;;;;10263125;28;20048;-63
2022/11/29 07:31:24;;;;;;;23.43;16.90;;;;;;;;;;10258691;28;20033;-62
2022/11/29 07:36:25;;;;;;;24.92;19.27;;;;;;;;;;10264124;28;20063;-63
2022/11/29 08:10:45;;;;;;;31.63;22.60;;;;;;;;;;10276937;28;20080;-64
2022/11/29 08:15:44;;;;;;;41.03;26.95;;;;;;;;;;10277827;28;20048;-65
2022/11/29 08:20:42;;;;;;;42.75;30.70;;;;;;;;;;10277484;28;20045;-64
2022/11/29 08:25:40;;;;;;;28.92;20.80;;;;;;;;;;10275714;28;20085;-64
2022/11/29 08:30:40;;;;;;;30.75;23.63;;;;;;;;;;10277366;28;20048;-63
2022/11/29 08:35:38;;;;;;;29.75;19.67;;;;;;;;;;10276531;28;20049;-63
2022/11/29 08:40:36;;;;;;;25.20;17.60;;;;;;;;;;10261055;28;20064;-63
2022/11/29 08:45:35;;;;;;;19.63;16.83;;;;;;;;;;10266731;28;20076;-65
2022/11/29 08:50:34;;;;;;;23.27;16.35;;;;;;;;;;10255728;28;20069;-63
2022/11/29 08:55:34;;;;;;;22.38;17.10;;;;;;;;;;10254023;28;20065;-63
2022/11/29 09:00:32;;;;;;;22.80;18.30;;;;;;;;;;10246978;28;20083;-63
2022/11/29 09:05:30;;;;;;;25.58;19.50;;;;;;;;;;10238450;28;20080;-63
2022/11/29 09:10:30;;;;;;;22.50;15.32;;;;;;;;;;10249806;28;20041;-63
2022/11/29 09:15:28;;;;;;;26.08;19.40;;;;;;;;;;10275811;28;20079;-63
2022/11/29 09:20:26;;;;;;;22.45;16.58;;;;;;;;;;10272777;28;20069;-63
2022/11/29 09:25:25;;;;;;;37.38;22.42;;;;;;;;;;10271616;28;20521;-63
2022/11/29 09:30:25;;;;;;;21.95;17.92;;;;;;;;;;10275795;28;20072;-63
2022/11/29 09:35:23;;;;;;;25.55;18.10;;;;;;;;;;10273370;28;20056;-63
2022/11/29 09:40:25;;;;;;;20.88;16.27;;;;;;;;;;10280992;28;20053;-63
2022/11/29 09:45:28;;;;;;;23.08;16.50;;;;;;;;;;10264559;28;20302;-63
2022/11/29 09:50:31;;;;;;;26.58;17.23;;;;;;;;;;10263581;28;20044;-64
2022/11/29 09:55:38;;;;;;;28.55;22.00;;;;;;;;;;10261813;28;20044;-64
2022/11/29 10:00:42;;;;;;;26.05;19.13;;;;;;;;;;10261130;28;20069;-64
2022/11/29 10:05:43;;;;;;;22.13;16.38;;;;;;;;;;10268699;28;20052;-64
2022/11/29 10:10:43;;;;;;;19.60;16.38;;;;;;;;;;10264471;28;20049;-64
2022/11/29 10:15:43;;;;;;;18.23;14.68;;;;;;;;;;10257526;28;20068;-65
2022/11/29 10:20:43;;;;;;;20.08;16.65;;;;;;;;;;10250564;28;20046;-63
2022/11/29 10:25:47;;;;;;;24.20;17.85;;;;;;;;;;10252407;28;20510;-64
2022/11/29 10:30:48;;;;;;;15.50;12.68;;;;;;;;;;10269314;28;20045;-64
2022/11/29 10:35:47;;;;;;;19.30;14.35;;;;;;;;;;10260039;28;20080;-64
2022/11/29 10:40:47;;;;;;;17.80;15.32;;;;;;;;;;10273259;28;20084;-64
2022/11/29 10:45:49;;;;;;;25.02;17.95;;;;;;;;;;10249965;28;20069;-64
2022/11/29 10:50:48;;;;;;;25.00;18.40;;;;;;;;;;10253817;28;20065;-64
2022/11/29 10:55:49;;;;;;;19.60;16.13;;;;;;;;;;10267480;28;20068;-63
2022/11/29 11:00:53;;;;;;;24.65;17.88;;;;;;;;;;10253435;28;20076;-63
2022/11/29 11:06:05;;;;;;;26.90;18.75;;;;;;;;;;10243498;28;20079;-63
2022/11/29 11:11:06;;;;;;;26.23;19.60;;;;;;;;;;10274549;28;20041;-63
2022/11/29 11:16:10;;;;;;;31.73;19.25;;;;;;;;;;10267406;28;20072;-63
2022/11/29 11:21:10;;;;;;;26.60;19.27;;;;;;;;;;10276292;28;20102;-63
2022/11/29 11:26:09;;;;;;;37.97;24.65;;;;;;;;;;10273732;28;20076;-64
2022/11/29 11:31:10;;;;;;;46.38;33.50;;;;;;;;;;10279740;28;20045;-64
2022/11/29 11:36:11;;;;;;;24.10;19.77;;;;;;;;;;10259584;28;20070;-64
2022/11/29 11:41:16;;;;;;;24.23;18.35;;;;;;;;;;10246183;28;20140;-64
2022/11/29 11:46:14;;;;;;;;;;;;;;;;;;10252429;28;20084;-65
2022/11/29 11:51:21;;;;;;;46.95;24.90;;;;;;;;;;10248005;28;19993;-64
2022/11/29 11:56:20;;;;;;;34.22;23.83;;;;;;;;;;10240791;28;20069;-64
2022/11/29 12:01:25;;;;;;;27.02;19.38;;;;;;;;;;10238997;28;20073;-64
2022/11/29 12:06:31;;;;;;;20.55;15.85;;;;;;;;;;10266362;28;20068;-64
2022/11/29 12:11:33;;;;;;;17.85;14.27;;;;;;;;;;10265204;28;20060;-64
2022/11/29 12:16:34;;;;;;;24.13;15.63;;;;;;;;;;10263499;28;20665;-64
2022/11/29 12:21:37;;;;;;;23.25;18.48;;;;;;;;;;10249861;28;20042;-64
2022/11/29 12:26:38;;;;;;;18.42;14.68;;;;;;;;;;10258487;28;20076;-64
2022/11/29 12:32:02;;;;;;;15.82;14.18;;;;;;;;;;10254420;28;20096;-64
2022/11/29 12:37:05;;;;;;;21.73;18.60;;;;;;;;;;10261994;28;20494;-64
2022/11/29 12:42:10;;;;;;;17.52;13.57;;;;;;;;;;10239026;28;20427;-63
2022/11/29 12:47:12;;;;;;;13.03;9.93;;;;;;;;;;10241328;28;20060;-63
2022/11/29 12:52:36;;;;;;;13.00;11.38;;;;;;;;;;10251463;28;20076;-64
2022/11/29 12:57:38;;;;;;;15.70;12.07;;;;;;;;;;10258649;28;20465;-62
2022/11/29 13:02:48;;;;;;;16.80;14.30;;;;;;;;;;10251599;28;20076;-63
2022/11/29 13:07:54;;;;;;;16.67;13.65;;;;;;;;;;10253822;28;20480;-64
2022/11/29 13:12:55;;;;;;;24.15;18.33;;;;;;;;;;10266238;28;20053;-64
2022/11/29 13:17:58;;;;;;;18.33;13.80;;;;;;;;;;10244485;28;20099;-65
2022/11/29 13:23:00;;;;;;;20.23;15.18;;;;;;;;;;10256064;28;20060;-65
2022/11/29 13:28:00;;;;;;;29.15;23.30;;;;;;;;;;10248996;28;20065;-64
2022/11/29 13:33:01;;;;;;;19.25;15.73;;;;;;;;;;10251186;28;20064;-64
2022/11/29 13:38:03;;;;;;;27.63;20.80;;;;;;;;;;10236916;28;20065;-65
2022/11/29 13:43:04;;;;;;;15.60;13.25;;;;;;;;;;10246796;28;20042;-65
2022/11/29 13:48:20;;;;;;;19.70;15.50;;;;;;;;;;10247429;28;20458;-64
2022/11/29 13:53:31;;;;;;;16.48;14.77;;;;;;;;;;10254103;28;20466;-64
2022/11/29 13:58:34;;;;;;;13.70;11.90;;;;;;;;;;10260492;28;20044;-64
2022/11/29 14:03:34;;;;;;;16.95;14.50;;;;;;;;;;10268593;28;20076;-64
2022/11/29 14:08:35;;;;;;;36.65;26.60;;;;;;;;;;10252990;28;20037;-63
2022/11/29 14:13:55;;;;;;;23.13;17.30;;;;;;;;;;10253621;28;20456;-64
2022/11/29 14:19:18;;;;;;;54.17;38.53;;;;;;;;;;10254475;28;20079;-64
2022/11/29 14:24:39;;;;;;;24.00;18.67;;;;;;;;;;10276393;28;20514;-64
2022/11/29 14:29:55;;;;;;;22.10;19.38;;;;;;;;;;10248476;28;20084;-64
2022/11/29 14:34:54;;;;;;;24.40;21.75;;;;;;;;;;10264022;28;20084;-63
2022/11/29 14:39:54;;;;;;;25.05;20.65;;;;;;;;;;10259371;28;20108;-63
2022/11/29 14:44:53;;;;;;;20.70;18.45;;;;;;;;;;10241946;28;20103;-63
2022/11/29 14:49:53;;;;;;;24.55;19.85;;;;;;;;;;10277524;28;20462;-63
2022/11/29 14:54:53;;;;;;;17.15;13.38;;;;;;;;;;10255583;28;20079;-64
2022/11/29 14:59:54;;;;;;;19.27;15.45;;;;;;;;;;10268362;28;20076;-65
2022/11/29 15:04:55;;;;;;;16.60;13.45;;;;;;;;;;10253938;28;20076;-66
2022/11/29 15:09:55;;;;;;;24.58;14.48;;;;;;;;;;10274018;28;20049;-64
2022/11/29 15:15:01;;;;;;;18.63;15.63;;;;;;;;;;10264243;28;20080;-64
2022/11/29 15:20:14;;;;;;;29.92;24.55;;;;;;;;;;10275233;28;20037;-64
2022/11/29 15:25:16;;;;;;;45.20;29.90;;;;;;;;;;10258806;28;20073;-64
2022/11/29 15:30:18;;;;;;;20.73;16.35;;;;;;;;;;10255839;28;20045;-65
2022/11/29 15:35:17;;;;;;;26.30;19.70;;;;;;;;;;10247120;28;20048;-64
2022/11/29 15:40:17;;;;;;;51.75;37.33;;;;;;;;;;10279888;28;20080;-64
2022/11/29 15:45:27;;;;;;;46.13;33.00;;;;;;;;;;10263050;28;20076;-65
2022/11/29 15:50:26;;;;;;;33.92;23.65;;;;;;;;;;10259006;28;20549;-65
2022/11/29 15:55:26;;;;;;;27.35;19.48;;;;;;;;;;10259630;28;20080;-63
2022/11/29 16:00:29;;;;;;;25.13;15.57;;;;;;;;;;10273539;28;20083;-64
2022/11/29 16:05:28;;;;;;;33.50;26.70;;;;;;;;;;10275994;28;20091;-64
2022/11/29 16:10:31;;;;;;;62.40;42.60;;;;;;;;;;10278432;28;20053;-65
2022/11/29 16:15:33;;;;;;;30.65;19.80;;;;;;;;;;10274690;28;20084;-63
2022/11/29 16:20:31;;;;;;;31.42;24.00;;;;;;;;;;10278228;28;20053;-64
2022/11/29 16:25:32;;;;;;;29.50;21.08;;;;;;;;;;10277776;28;20506;-63
2022/11/29 16:30:40;;;;;;;21.70;17.50;;;;;;;;;;10276655;28;20080;-63
2022/11/29 16:35:39;;;;;;;31.20;23.30;;;;;;;;;;10278178;28;20052;-64
2022/11/29 16:40:38;;;;;;;36.00;24.70;;;;;;;;;;10277787;28;20525;-64
2022/11/29 16:45:37;;;;;;;48.20;31.02;;;;;;;;;;10276929;28;20198;-63
2022/11/29 16:50:35;;;;;;;31.58;21.27;;;;;;;;;;10277033;28;20056;-64
2022/11/29 16:55:34;;;;;;;29.10;21.70;;;;;;;;;;10277012;28;20041;-64
2022/11/29 17:00:33;;;;;;;30.63;22.98;;;;;;;;;;10276682;28;20068;-64
2022/11/29 17:05:31;;;;;;;22.75;18.42;;;;;;;;;;10276152;28;20084;-63
2022/11/29 17:10:31;;;;;;;27.33;19.60;;;;;;;;;;10276184;28;20052;-64
2022/11/29 17:15:29;;;;;;;26.13;19.73;;;;;;;;;;10276671;28;20068;-63
2022/11/29 17:20:28;;;;;;;23.27;17.30;;;;;;;;;;10275394;28;20517;-64
2022/11/29 17:25:27;;;;;;;30.50;20.95;;;;;;;;;;10276081;28;20080;-64
2022/11/29 17:30:26;;;;;;;22.33;17.35;;;;;;;;;;10276070;28;20037;-63
2022/11/29 17:35:24;;;;;;;32.08;23.67;;;;;;;;;;10274919;28;20052;-64
2022/11/29 17:40:24;;;;;;;30.02;22.08;;;;;;;;;;10275870;28;20045;-64
2022/11/29 17:45:22;;;;;;;26.25;19.10;;;;;;;;;;10275724;28;20080;-65
2022/11/29 17:50:20;;;;;;;44.50;30.45;;;;;;;;;;10275551;28;20499;-64
2022/11/29 17:55:18;;;;;;;62.05;42.33;;;;;;;;;;10275406;28;20037;-65
2022/11/29 18:00:20;;;;;;;45.00;31.52;;;;;;;;;;10280211;28;20046;-64
2022/11/29 18:05:19;;;;;;;43.30;28.80;;;;;;;;;;10282675;28;20084;-65
2022/11/29 18:10:17;;;;;;;49.90;36.22;;;;;;;;;;10267396;28;20045;-64
2022/11/29 18:15:16;;;;;;;43.78;30.95;;;;;;;;;;10259707;28;20068;-64
2022/11/29 18:20:26;;;;;;;26.33;20.95;;;;;;;;;;10254518;28;20068;-62
2022/11/29 18:25:27;;;;;;;43.08;25.05;;;;;;;;;;10250041;28;20529;-62
2022/11/29 18:30:36;;;;;;;22.17;16.63;;;;;;;;;;10253504;28;20044;-64
2022/11/29 18:35:36;;;;;;;32.05;21.80;;;;;;;;;;10256272;28;20068;-65
2022/11/29 18:40:34;;;;;;;26.23;18.63;;;;;;;;;;10245068;28;20072;-64
2022/11/29 18:45:34;;;;;;;27.05;18.63;;;;;;;;;;10269427;28;20084;-65
2022/11/29 18:50:32;;;;;;;24.80;17.38;;;;;;;;;;10247921;28;20061;-65
2022/11/29 18:55:32;;;;;;;22.70;18.00;;;;;;;;;;10267432;28;20489;-64
2022/11/29 19:00:30;;;;;;;26.15;19.98;;;;;;;;;;10258926;28;20061;-64
2022/11/29 19:05:28;;;;;;;28.15;21.42;;;;;;;;;;10262639;28;20069;-64
2022/11/29 19:10:26;;;;;;;22.58;17.25;;;;;;;;;;10255901;28;20096;-65
2022/11/29 19:15:26;;;;;;;27.17;21.00;;;;;;;;;;10255185;28;20166;-64
2022/11/29 19:20:24;;;;;;;40.78;31.88;;;;;;;;;;10253684;28;20511;-65
2022/11/29 19:25:22;;;;;;;48.70;32.42;;;;;;;;;;10260653;28;20494;-63
2022/11/29 19:30:20;;;;;;;25.60;18.40;;;;;;;;;;10260676;28;20041;-63
2022/11/29 19:35:20;;;;;;;31.88;21.38;;;;;;;;;;10280068;28;20087;-62
2022/11/29 19:40:18;;;;;;;27.30;18.50;;;;;;;;;;10279914;28;20053;-64
2022/11/29 19:45:17;;;;;;;31.27;18.92;;;;;;;;;;10279217;28;20198;-63
2022/11/29 19:50:15;;;;;;;28.02;22.75;;;;;;;;;;10264288;28;20069;-64
2022/11/29 19:55:15;;;;;;;22.88;16.02;;;;;;;;;;10238983;28;20077;-64
2022/11/29 20:00:14;;;;;;;26.08;17.92;;;;;;;;;;10238645;28;20076;-64
2022/11/29 20:05:13;;;;;;;26.90;18.33;;;;;;;;;;10271789;28;20048;-64
2022/11/29 20:10:11;;;;;;;31.88;19.45;;;;;;;;;;10259039;28;20087;-64
2022/11/29 20:15:11;;;;;;;20.58;15.32;;;;;;;;;;10254814;28;20045;-65
2022/11/29 20:20:10;;;;;;;23.08;17.67;;;;;;;;;;10257581;28;20077;-64
2022/11/29 20:25:08;;;;;;;25.05;15.23;;;;;;;;;;10253380;28;20080;-64
2022/11/29 20:30:09;;;;;;;25.40;16.08;;;;;;;;;;10252223;28;20073;-64
2022/11/29 20:35:10;;;;;;;25.40;19.10;;;;;;;;;;10261966;28;20087;-64
2022/11/29 20:40:10;;;;;;;19.58;15.60;;;;;;;;;;10242178;28;20455;-64
2022/11/29 20:45:09;;;;;;;21.73;16.63;;;;;;;;;;10249912;28;20689;-63
2022/11/29 20:50:08;;;;;;;33.25;27.20;;;;;;;;;;10260554;28;20060;-63
2022/11/29 20:55:08;;;;;;;21.85;14.30;;;;;;;;;;10239389;28;20422;-64
2022/11/29 21:00:07;;;;;;;22.95;16.13;;;;;;;;;;10250235;28;20045;-64
2022/11/29 21:05:06;;;;;;;21.27;15.38;;;;;;;;;;10263047;28;20072;-64
2022/11/29 21:10:05;;;;;;;23.35;15.93;;;;;;;;;;10236014;28;20073;-64
2022/11/29 21:15:05;;;;;;;20.55;13.82;;;;;;;;;;10243232;28;20077;-63
2022/11/29 21:20:04;;;;;;;17.10;14.70;;;;;;;;;;10248585;28;20080;-63
2022/11/29 21:25:08;;;;;;;47.55;28.90;;;;;;;;;;10258440;28;20496;-63
2022/11/29 21:30:13;;;;;;;21.47;16.70;;;;;;;;;;10247801;28;20083;-65
2022/11/29 21:35:12;;;;;;;22.10;14.68;;;;;;;;;;10240834;28;20045;-64
2022/11/29 21:40:11;;;;;;;22.75;15.93;;;;;;;;;;10236469;28;20080;-64
2022/11/29 21:45:11;;;;;;;32.22;19.83;;;;;;;;;;10235218;28;20052;-65
2022/11/29 21:50:13;;;;;;;29.23;20.33;;;;;;;;;;10243393;28;20065;-65
2022/11/29 21:55:11;;;;;;;23.52;18.10;;;;;;;;;;10253099;28;20068;-63
2022/11/29 22:00:11;;;;;;;22.02;17.05;;;;;;;;;;10263747;28;20064;-65
2022/11/29 22:05:11;;;;;;;19.10;15.38;;;;;;;;;;10257275;28;20066;-64
2022/11/29 22:10:09;;;;;;;22.52;15.43;;;;;;;;;;10248969;28;20076;-65
2022/11/29 22:15:12;;;;;;;17.60;13.20;;;;;;;;;;10247621;28;20115;-65
2022/11/29 22:20:11;;;;;;;14.48;12.75;;;;;;;;;;10248765;28;20045;-65
2022/11/29 22:25:09;;;;;;;17.30;13.60;;;;;;;;;;10236231;28;20093;-64
2022/11/29 22:30:09;;;;;;;19.77;15.13;;;;;;;;;;10238782;28;20079;-65
2022/11/29 22:35:09;;;;;;;15.73;13.45;;;;;;;;;;10234381;28;20515;-65
2022/11/29 22:40:07;;;;;;;19.17;15.45;;;;;;;;;;10234202;28;20041;-63
2022/11/29 22:45:06;;;;;;;25.30;17.48;;;;;;;;;;10235663;28;20534;-64
2022/11/29 22:50:05;;;;;;;17.95;13.57;;;;;;;;;;10242064;28;20077;-64
2022/11/29 22:55:04;;;;;;;20.10;16.45;;;;;;;;;;10281462;28;20422;-65
2022/11/29 23:00:03;;;;;;;20.15;17.42;;;;;;;;;;10280414;28;20076;-64
2022/11/29 23:05:01;;;;;;;17.27;14.93;;;;;;;;;;10281048;28;20048;-64
2022/11/29 23:10:00;;;;;;;19.52;16.33;;;;;;;;;;10280970;28;20091;-65
2022/11/29 23:15:00;;;;;;;18.98;15.57;;;;;;;;;;10281368;28;20057;-65
2022/11/29 23:19:59;;;;;;;18.67;15.40;;;;;;;;;;10280652;28;20490;-64
2022/11/29 23:24:57;;;;;;;19.50;16.23;;;;;;;;;;10280444;28;20049;-64
2022/11/29 23:29:55;;;;;;;20.60;16.13;;;;;;;;;;10280049;28;20471;-64
2022/11/29 23:34:55;;;;;;;20.92;16.52;;;;;;;;;;10279736;28;20076;-63
2022/11/29 23:39:53;;;;;;;23.95;17.05;;;;;;;;;;10279810;28;20179;-64
2022/11/29 23:44:51;;;;;;;21.27;16.40;;;;;;;;;;10279654;28;20083;-64
2022/11/29 23:49:49;;;;;;;20.17;17.02;;;;;;;;;;10278640;28;20073;-64
2022/11/29 23:54:52;;;;;;;21.77;17.33;;;;;;;;;;10277523;28;20056;-64
2022/11/29 23:59:50;;;;;;;21.27;17.48;;;;;;;;;;10278359;28;20081;-64
